Change the Weather History Date:

Wednesday, October 3, 2012

  Actual Average (KLVN) Record (KLVN)
Temperature  
Mean Temperature 60 °F -  
Max Temperature 78 °F 65 °F 93 °F (1997)
Min Temperature 41 °F 42 °F 24 °F (1996)
Degree Days  
Heating Degree Days 6    
Growing Degree Days 10 (Base 50)    
Moisture  
Dew Point 40 °F    
Average Humidity 51    
Maximum Humidity 90    
Minimum Humidity 22    
Precipitation  
Precipitation 0.00 in - - ()
Sea Level Pressure  
Sea Level Pressure 29.88 in    
Wind  
Wind Speed 4 mph (South)    
Max Wind Speed 14 mph    
Max Gust Speed 20 mph    
Visibility 10 miles    
Events      
Averages and records for this station are not official NWS values.
T = Trace of Precipitation, MM = Missing Value Source: NWS Daily Summary

Daily Weather History Graph

Daily Weather History Graph

Search for Another Location

Airport or City:

Trip Planner

Search our weather history database for the weather conditions in past years. The results will help you decide how hot, cold, wet, or windy it might be!

Date:

Astronomy

Oct. 03, 2012 Rise Set
Actual Time 7:12 AM CDT 6:48 PM CDT
Civil Twilight 6:43 AM CDT 7:17 PM CDT
Nautical Twilight 6:10 AM CDT 7:50 PM CDT
Astronomical Twilight 5:36 AM CDT 8:24 PM CDT
Moon 8:30 PM CDT (10/3) 10:46 AM CDT (10/3)
Length of Visible Light 12h 33m
Length of Day
11h 35m
Waning Gibbous, 88% of the Moon is Illuminated
Oct 3
Waning Gibbous
Oct 8
Last Quarter
Oct 15
New
Oct 21
First Quarter
Oct 29
Full

Hourly Weather History & Observations

Time (CDT) Temp. Windchill Dew Point Humidity Pressure Visibility Wind Dir Wind Speed Gust Speed Precip Events Conditions
12:12 AM 49.3 °F - 38.7 °F 67% 29.88 in 10.0 mi SSW 3.5 mph - N/A   Clear
12:32 AM 47.1 °F - 38.3 °F 71% 29.88 in 7.0 mi SSW 4.6 mph - N/A   Clear
12:52 AM 46.6 °F - 38.7 °F 74% 29.88 in 7.0 mi SSW 4.6 mph - N/A   Clear
1:12 AM 48.2 °F - 39.2 °F 71% 29.88 in 7.0 mi SSW 4.6 mph - N/A   Clear
1:32 AM 48.2 °F - 39.2 °F 71% 29.89 in 10.0 mi SSW 3.5 mph - N/A   Clear
1:52 AM 46.0 °F 44.8 °F 38.7 °F 75% 29.89 in 10.0 mi SSW 3.5 mph - N/A   Clear
2:12 AM 48.2 °F - 39.7 °F 73% 29.90 in 10.0 mi SSW 3.5 mph - N/A   Clear
2:32 AM 48.4 °F - 40.3 °F 74% 29.90 in 10.0 mi SW 3.5 mph - N/A   Clear
2:52 AM 48.4 °F - 40.5 °F 74% 29.90 in 10.0 mi Calm Calm - N/A   Clear
3:12 AM 45.5 °F - 39.4 °F 79% 29.89 in 10.0 mi Calm Calm - N/A   Clear
3:32 AM 44.6 °F - 38.8 °F 80% 29.89 in 10.0 mi Calm Calm - N/A   Clear
3:52 AM 44.2 °F - 39.4 °F 83% 29.89 in 10.0 mi Calm Calm - N/A   Clear
4:12 AM 43.7 °F - 39.0 °F 84% 29.90 in 10.0 mi Calm Calm - N/A   Clear
4:32 AM 44.1 °F - 39.2 °F 83% 29.90 in 10.0 mi Calm Calm - N/A   Clear
4:52 AM 43.3 °F - 39.2 °F 85% 29.90 in 10.0 mi Calm Calm - N/A   Clear
5:12 AM 43.0 °F - 39.6 °F 88% 29.90 in 10.0 mi Calm Calm - N/A   Clear
5:32 AM 43.2 °F - 40.5 °F 90% 29.90 in 10.0 mi Calm Calm - N/A   Clear
5:52 AM 43.3 °F 41.7 °F 40.5 °F 90% 29.90 in 7.0 mi SSW 3.5 mph - N/A   Clear
6:12 AM 41.2 °F - 37.9 °F 88% 29.91 in 7.0 mi Calm Calm - N/A   Clear
6:32 AM 43.3 °F - 40.3 °F 89% 29.91 in 7.0 mi Calm Calm - N/A   Clear
6:52 AM 46.4 °F 45.2 °F 43.0 °F 88% 29.91 in 10.0 mi South 3.5 mph - N/A   Clear
7:12 AM 46.4 °F - 42.1 °F 85% 29.91 in 10.0 mi Calm Calm - N/A   Clear
7:32 AM 43.5 °F - 38.8 °F 84% 29.91 in 7.0 mi Calm Calm - N/A   Clear
7:52 AM 46.2 °F - 41.9 °F 85% 29.91 in 10.0 mi Calm Calm - N/A   Clear
8:12 AM 48.7 °F - 44.2 °F 84% 29.91 in 7.0 mi SW 3.5 mph - N/A   Clear
8:32 AM 52.2 °F - 45.9 °F 79% 29.91 in 10.0 mi Calm Calm - N/A   Clear
8:52 AM 55.0 °F - 46.4 °F 73% 29.91 in 10.0 mi South 3.5 mph - N/A   Clear
9:11 AM 57.7 °F - 46.6 °F 66% 29.91 in 10.0 mi South 3.5 mph - N/A   Clear
9:32 AM 60.8 °F - 46.2 °F 59% 29.91 in 10.0 mi South 3.5 mph - N/A   Clear
9:52 AM 63.5 °F - 45.7 °F 52% 29.91 in 10.0 mi South 5.8 mph - N/A   Clear
10:12 AM 66.4 °F - 45.7 °F 47% 29.91 in 10.0 mi SSE 5.8 mph - N/A   Clear
10:32 AM 67.5 °F - 45.1 °F 45% 29.91 in 10.0 mi South 4.6 mph - N/A   Clear
10:52 AM 70.0 °F - 44.1 °F 39% 29.91 in 10.0 mi SSW 5.8 mph - N/A   Clear
11:12 AM 71.8 °F - 43.2 °F 36% 29.91 in 10.0 mi South 8.1 mph - N/A   Clear
11:32 AM 72.9 °F - 41.5 °F 32% 29.90 in 10.0 mi South 3.5 mph - N/A   Clear
11:52 AM 74.1 °F - 40.1 °F 29% 29.90 in 10.0 mi South 6.9 mph - N/A   Clear
12:12 PM 74.7 °F - 39.4 °F 28% 29.90 in 10.0 mi SW 8.1 mph - N/A   Clear
12:32 PM 75.6 °F - 39.4 °F 27% 29.89 in 10.0 mi South 8.1 mph - N/A   Clear
12:52 PM 75.4 °F - 39.2 °F 27% 29.88 in 10.0 mi South 6.9 mph 16.1 mph N/A   Clear
1:12 PM 76.1 °F - 37.9 °F 25% 29.88 in 10.0 mi SSE 9.2 mph - N/A   Clear
1:32 PM 76.6 °F - 38.3 °F 25% 29.86 in 10.0 mi South 6.9 mph - N/A   Clear
1:52 PM 77.0 °F - 37.6 °F 24% 29.86 in 10.0 mi SSW 8.1 mph - N/A   Clear
2:12 PM 77.2 °F - 37.6 °F 24% 29.85 in 10.0 mi SSE 8.1 mph - N/A   Clear
2:32 PM 77.7 °F - 37.2 °F 23% 29.84 in 10.0 mi South 6.9 mph 16.1 mph N/A   Clear
2:52 PM 78.1 °F - 37.2 °F 23% 29.84 in 10.0 mi South 6.9 mph - N/A   Clear
3:12 PM 77.9 °F - 36.9 °F 23% 29.83 in 10.0 mi South 8.1 mph - N/A   Clear
3:32 PM 77.7 °F - 36.7 °F 23% 29.83 in 10.0 mi SSE 8.1 mph - N/A   Clear
3:52 PM 78.3 °F - 36.5 °F 22% 29.83 in 10.0 mi South 6.9 mph - N/A   Clear
4:12 PM 77.9 °F - 36.3 °F 22% 29.83 in 10.0 mi SSE 6.9 mph - N/A   Clear
4:32 PM 77.7 °F - 37.2 °F 23% 29.83 in 10.0 mi South 10.4 mph 19.6 mph N/A   Clear
4:52 PM 77.4 °F - 37.2 °F 23% 29.83 in 10.0 mi South 9.2 mph 16.1 mph N/A   Clear
5:12 PM 77.2 °F - 37.2 °F 24% 29.83 in 10.0 mi SSE 11.5 mph 16.1 mph N/A   Clear
5:32 PM 76.6 °F - 37.4 °F 24% 29.83 in 10.0 mi SSE 6.9 mph - N/A   Clear
5:52 PM 76.1 °F - 37.0 °F 24% 29.83 in 10.0 mi SSE 9.2 mph - N/A   Clear
6:12 PM 75.2 °F - 37.4 °F 25% 29.84 in 10.0 mi SSE 8.1 mph - N/A   Clear
6:32 PM 72.9 °F - 37.9 °F 28% 29.84 in 10.0 mi SE 4.6 mph - N/A   Clear
6:52 PM 71.2 °F - 38.3 °F 30% 29.85 in 10.0 mi SE 5.8 mph - N/A   Clear
7:12 PM 70.5 °F - 38.5 °F 31% 29.85 in 10.0 mi SE 4.6 mph - N/A   Clear
7:32 PM 69.3 °F - 39.0 °F 33% 29.86 in 10.0 mi SE 5.8 mph - N/A   Clear
7:52 PM 68.9 °F - 39.6 °F 34% 29.86 in 10.0 mi SE 5.8 mph - N/A   Clear
8:12 PM 68.9 °F - 39.7 °F 35% 29.86 in 10.0 mi SE 6.9 mph - N/A   Clear
8:32 PM 68.0 °F - 40.6 °F 37% 29.86 in 10.0 mi SE 8.1 mph - N/A   Clear
8:52 PM 68.0 °F - 41.2 °F 38% 29.86 in 10.0 mi SE 8.1 mph - N/A   Clear
9:12 PM 67.6 °F - 41.7 °F 39% 29.86 in 10.0 mi SE 6.9 mph - N/A   Clear
9:32 PM 67.1 °F - 41.9 °F 40% 29.86 in 10.0 mi SE 6.9 mph - N/A   Clear
9:52 PM 66.7 °F - 41.9 °F 40% 29.86 in 10.0 mi SSE 6.9 mph - N/A   Clear
10:12 PM 66.2 °F - 41.9 °F 41% 29.86 in 10.0 mi SSE 6.9 mph - N/A   Clear
10:32 PM 65.5 °F - 41.9 °F 42% 29.86 in 10.0 mi SSE 6.9 mph - N/A   Clear
10:52 PM 66.2 °F - 41.5 °F 41% 29.86 in 10.0 mi SSE 6.9 mph - N/A   Clear
11:12 PM 65.5 °F - 41.5 °F 42% 29.86 in 10.0 mi SSE 8.1 mph - N/A   Clear
11:32 PM 65.5 °F - 41.5 °F 42% 29.86 in 10.0 mi SSE 8.1 mph 16.1 mph N/A   Clear
11:52 PM 64.6 °F - 41.7 °F 43% 29.85 in 10.0 mi SSE 13.8 mph 17.3 mph N/A   Clear